sensor_id;sensor_type;location;lat;lon;timestamp;P1;durP1;ratioP1;P2;durP2;ratioP2
28176;SDS011;15461;41.652;9.378;2024-02-26T00:00:35;3.17;;;1.17;;
28176;SDS011;15461;41.652;9.378;2024-02-26T00:03:02;3.17;;;1.23;;
28176;SDS011;15461;41.652;9.378;2024-02-26T00:05:28;4.38;;;1.20;;
28176;SDS011;15461;41.652;9.378;2024-02-26T00:07:54;3.88;;;1.38;;
28176;SDS011;15461;41.652;9.378;2024-02-26T00:10:19;3.97;;;1.20;;
28176;SDS011;15461;41.652;9.378;2024-02-26T00:12:45;3.97;;;1.13;;
28176;SDS011;15461;41.652;9.378;2024-02-26T00:15:11;2.95;;;1.10;;
28176;SDS011;15461;41.652;9.378;2024-02-26T00:17:37;4.40;;;1.10;;
28176;SDS011;15461;41.652;9.378;2024-02-26T00:20:03;2.78;;;1.30;;
28176;SDS011;15461;41.652;9.378;2024-02-26T00:22:33;2.13;;;0.98;;
28176;SDS011;15461;41.652;9.378;2024-02-26T00:24:59;2.75;;;1.40;;
28176;SDS011;15461;41.652;9.378;2024-02-26T00:27:25;1.75;;;1.00;;
28176;SDS011;15461;41.652;9.378;2024-02-26T00:29:50;1.60;;;1.00;;
28176;SDS011;15461;41.652;9.378;2024-02-26T00:32:16;3.75;;;1.13;;
28176;SDS011;15461;41.652;9.378;2024-02-26T00:34:42;3.05;;;1.25;;
28176;SDS011;15461;41.652;9.378;2024-02-26T00:37:08;5.05;;;1.00;;
28176;SDS011;15461;41.652;9.378;2024-02-26T00:39:33;4.05;;;0.90;;
28176;SDS011;15461;41.652;9.378;2024-02-26T00:41:59;4.28;;;0.85;;
28176;SDS011;15461;41.652;9.378;2024-02-26T00:44:25;3.58;;;1.27;;
28176;SDS011;15461;41.652;9.378;2024-02-26T00:46:51;1.98;;;0.90;;
28176;SDS011;15461;41.652;9.378;2024-02-26T00:49:16;1.88;;;0.82;;
28176;SDS011;15461;41.652;9.378;2024-02-26T00:51:42;2.45;;;1.10;;
28176;SDS011;15461;41.652;9.378;2024-02-26T00:54:08;2.40;;;0.90;;
28176;SDS011;15461;41.652;9.378;2024-02-26T00:56:34;2.67;;;0.90;;
28176;SDS011;15461;41.652;9.378;2024-02-26T00:58:59;1.85;;;1.05;;
28176;SDS011;15461;41.652;9.378;2024-02-26T01:01:25;0.77;;;0.70;;
28176;SDS011;15461;41.652;9.378;2024-02-26T01:03:51;3.03;;;0.80;;
28176;SDS011;15461;41.652;9.378;2024-02-26T01:06:17;2.90;;;0.60;;
28176;SDS011;15461;41.652;9.378;2024-02-26T01:08:43;0.93;;;0.63;;
28176;SDS011;15461;41.652;9.378;2024-02-26T01:11:09;0.70;;;0.65;;
28176;SDS011;15461;41.652;9.378;2024-02-26T01:13:34;1.20;;;0.95;;
28176;SDS011;15461;41.652;9.378;2024-02-26T01:16:00;3.60;;;1.27;;
28176;SDS011;15461;41.652;9.378;2024-02-26T01:18:26;1.13;;;0.60;;
28176;SDS011;15461;41.652;9.378;2024-02-26T01:20:52;2.50;;;0.60;;
28176;SDS011;15461;41.652;9.378;2024-02-26T01:23:19;1.10;;;0.60;;
28176;SDS011;15461;41.652;9.378;2024-02-26T01:25:46;0.40;;;0.40;;
28176;SDS011;15461;41.652;9.378;2024-02-26T01:28:11;2.67;;;0.93;;
28176;SDS011;15461;41.652;9.378;2024-02-26T01:30:37;2.15;;;0.50;;
28176;SDS011;15461;41.652;9.378;2024-02-26T01:33:03;0.77;;;0.52;;
28176;SDS011;15461;41.652;9.378;2024-02-26T01:35:29;0.55;;;0.40;;
28176;SDS011;15461;41.652;9.378;2024-02-26T01:37:55;0.82;;;0.43;;
28176;SDS011;15461;41.652;9.378;2024-02-26T01:40:21;4.35;;;0.70;;
28176;SDS011;15461;41.652;9.378;2024-02-26T01:42:47;0.98;;;0.52;;
28176;SDS011;15461;41.652;9.378;2024-02-26T01:45:16;2.00;;;0.55;;
28176;SDS011;15461;41.652;9.378;2024-02-26T01:47:52;0.73;;;0.60;;
28176;SDS011;15461;41.652;9.378;2024-02-26T01:50:19;1.13;;;0.47;;
28176;SDS011;15461;41.652;9.378;2024-02-26T01:52:47;1.02;;;0.60;;
28176;SDS011;15461;41.652;9.378;2024-02-26T01:55:14;2.00;;;0.60;;
28176;SDS011;15461;41.652;9.378;2024-02-26T01:57:42;4.22;;;0.60;;
28176;SDS011;15461;41.652;9.378;2024-02-26T02:00:10;1.65;;;0.50;;
28176;SDS011;15461;41.652;9.378;2024-02-26T02:02:37;2.17;;;0.50;;
28176;SDS011;15461;41.652;9.378;2024-02-26T02:05:05;1.85;;;0.73;;
28176;SDS011;15461;41.652;9.378;2024-02-26T02:07:32;2.17;;;0.65;;
28176;SDS011;15461;41.652;9.378;2024-02-26T02:10:00;0.60;;;0.60;;
28176;SDS011;15461;41.652;9.378;2024-02-26T02:12:25;0.80;;;0.80;;
28176;SDS011;15461;41.652;9.378;2024-02-26T02:14:52;4.15;;;1.05;;
28176;SDS011;15461;41.652;9.378;2024-02-26T02:17:19;1.10;;;0.70;;
28176;SDS011;15461;41.652;9.378;2024-02-26T02:19:45;1.08;;;0.50;;
28176;SDS011;15461;41.652;9.378;2024-02-26T02:22:11;4.13;;;0.73;;
28176;SDS011;15461;41.652;9.378;2024-02-26T02:24:37;1.25;;;0.60;;
28176;SDS011;15461;41.652;9.378;2024-02-26T02:27:03;2.13;;;0.60;;
28176;SDS011;15461;41.652;9.378;2024-02-26T02:29:29;2.83;;;0.65;;
28176;SDS011;15461;41.652;9.378;2024-02-26T02:31:55;2.17;;;0.90;;
28176;SDS011;15461;41.652;9.378;2024-02-26T02:34:21;0.52;;;0.52;;
28176;SDS011;15461;41.652;9.378;2024-02-26T02:36:48;1.77;;;0.50;;
28176;SDS011;15461;41.652;9.378;2024-02-26T02:39:16;0.55;;;0.50;;
28176;SDS011;15461;41.652;9.378;2024-02-26T02:41:42;3.75;;;0.80;;
28176;SDS011;15461;41.652;9.378;2024-02-26T02:44:08;0.90;;;0.52;;
28176;SDS011;15461;41.652;9.378;2024-02-26T02:46:33;0.88;;;0.60;;
28176;SDS011;15461;41.652;9.378;2024-02-26T02:49:00;2.22;;;0.80;;
28176;SDS011;15461;41.652;9.378;2024-02-26T02:51:26;1.00;;;0.60;;
28176;SDS011;15461;41.652;9.378;2024-02-26T02:53:52;2.85;;;0.80;;
28176;SDS011;15461;41.652;9.378;2024-02-26T02:56:18;1.17;;;0.63;;
28176;SDS011;15461;41.652;9.378;2024-02-26T02:58:44;1.40;;;0.70;;
28176;SDS011;15461;41.652;9.378;2024-02-26T03:01:10;3.25;;;1.08;;
28176;SDS011;15461;41.652;9.378;2024-02-26T03:03:37;1.30;;;0.60;;
28176;SDS011;15461;41.652;9.378;2024-02-26T03:06:03;1.85;;;0.75;;
28176;SDS011;15461;41.652;9.378;2024-02-26T03:08:28;1.88;;;0.73;;
28176;SDS011;15461;41.652;9.378;2024-02-26T03:10:54;2.17;;;0.70;;
28176;SDS011;15461;41.652;9.378;2024-02-26T03:13:20;1.85;;;0.55;;
28176;SDS011;15461;41.652;9.378;2024-02-26T03:15:46;2.55;;;0.75;;
28176;SDS011;15461;41.652;9.378;2024-02-26T03:18:12;1.83;;;0.73;;
28176;SDS011;15461;41.652;9.378;2024-02-26T03:20:38;3.90;;;0.90;;
28176;SDS011;15461;41.652;9.378;2024-02-26T03:23:04;1.25;;;0.80;;
28176;SDS011;15461;41.652;9.378;2024-02-26T03:25:29;3.15;;;0.73;;
28176;SDS011;15461;41.652;9.378;2024-02-26T03:27:55;0.85;;;0.60;;
28176;SDS011;15461;41.652;9.378;2024-02-26T03:30:21;2.22;;;0.55;;
28176;SDS011;15461;41.652;9.378;2024-02-26T03:32:47;0.88;;;0.50;;
28176;SDS011;15461;41.652;9.378;2024-02-26T03:35:13;0.50;;;0.50;;
28176;SDS011;15461;41.652;9.378;2024-02-26T03:37:38;2.78;;;0.70;;
28176;SDS011;15461;41.652;9.378;2024-02-26T03:40:05;0.63;;;0.60;;
28176;SDS011;15461;41.652;9.378;2024-02-26T03:42:31;2.50;;;0.70;;
28176;SDS011;15461;41.652;9.378;2024-02-26T03:44:57;1.10;;;0.73;;
28176;SDS011;15461;41.652;9.378;2024-02-26T03:47:22;1.85;;;0.55;;
28176;SDS011;15461;41.652;9.378;2024-02-26T03:49:48;0.98;;;0.50;;
28176;SDS011;15461;41.652;9.378;2024-02-26T03:52:14;0.50;;;0.40;;
28176;SDS011;15461;41.652;9.378;2024-02-26T03:54:40;3.70;;;0.68;;
28176;SDS011;15461;41.652;9.378;2024-02-26T03:57:06;1.48;;;0.65;;
28176;SDS011;15461;41.652;9.378;2024-02-26T03:59:31;0.63;;;0.50;;
28176;SDS011;15461;41.652;9.378;2024-02-26T04:01:57;0.60;;;0.60;;
28176;SDS011;15461;41.652;9.378;2024-02-26T04:04:23;1.95;;;0.60;;
28176;SDS011;15461;41.652;9.378;2024-02-26T04:06:49;0.63;;;0.60;;
28176;SDS011;15461;41.652;9.378;2024-02-26T04:09:14;2.47;;;0.60;;
28176;SDS011;15461;41.652;9.378;2024-02-26T04:11:40;2.33;;;0.80;;
28176;SDS011;15461;41.652;9.378;2024-02-26T04:14:08;2.45;;;0.70;;
28176;SDS011;15461;41.652;9.378;2024-02-26T04:16:36;1.05;;;0.70;;
28176;SDS011;15461;41.652;9.378;2024-02-26T04:19:02;1.05;;;0.50;;
28176;SDS011;15461;41.652;9.378;2024-02-26T04:21:28;0.50;;;0.50;;
28176;SDS011;15461;41.652;9.378;2024-02-26T04:23:53;0.52;;;0.52;;
28176;SDS011;15461;41.652;9.378;2024-02-26T04:26:26;1.73;;;0.50;;
28176;SDS011;15461;41.652;9.378;2024-02-26T04:28:51;2.05;;;0.60;;
28176;SDS011;15461;41.652;9.378;2024-02-26T04:31:18;2.85;;;0.80;;
28176;SDS011;15461;41.652;9.378;2024-02-26T04:33:44;0.80;;;0.75;;
28176;SDS011;15461;41.652;9.378;2024-02-26T04:36:13;0.77;;;0.50;;
28176;SDS011;15461;41.652;9.378;2024-02-26T04:38:40;3.30;;;0.80;;
28176;SDS011;15461;41.652;9.378;2024-02-26T04:41:06;2.95;;;0.70;;
28176;SDS011;15461;41.652;9.378;2024-02-26T04:43:32;0.57;;;0.47;;
28176;SDS011;15461;41.652;9.378;2024-02-26T04:45:58;1.05;;;0.63;;
28176;SDS011;15461;41.652;9.378;2024-02-26T04:48:23;1.85;;;0.70;;
28176;SDS011;15461;41.652;9.378;2024-02-26T04:50:49;4.93;;;0.80;;
28176;SDS011;15461;41.652;9.378;2024-02-26T04:53:15;1.80;;;0.60;;
28176;SDS011;15461;41.652;9.378;2024-02-26T04:55:41;0.65;;;0.50;;
28176;SDS011;15461;41.652;9.378;2024-02-26T04:58:06;4.43;;;0.90;;
28176;SDS011;15461;41.652;9.378;2024-02-26T05:00:32;2.85;;;0.47;;
28176;SDS011;15461;41.652;9.378;2024-02-26T05:02:58;4.43;;;0.93;;
28176;SDS011;15461;41.652;9.378;2024-02-26T05:05:23;2.78;;;0.70;;
28176;SDS011;15461;41.652;9.378;2024-02-26T05:07:50;2.70;;;0.80;;
28176;SDS011;15461;41.652;9.378;2024-02-26T05:10:15;2.35;;;0.90;;
28176;SDS011;15461;41.652;9.378;2024-02-26T05:12:41;0.52;;;0.50;;
28176;SDS011;15461;41.652;9.378;2024-02-26T05:15:08;1.73;;;0.60;;
28176;SDS011;15461;41.652;9.378;2024-02-26T05:17:34;2.25;;;0.70;;
28176;SDS011;15461;41.652;9.378;2024-02-26T05:20:00;0.82;;;0.70;;
28176;SDS011;15461;41.652;9.378;2024-02-26T05:22:26;1.95;;;0.73;;
28176;SDS011;15461;41.652;9.378;2024-02-26T05:24:51;3.55;;;0.68;;
28176;SDS011;15461;41.652;9.378;2024-02-26T05:27:17;0.60;;;0.55;;
28176;SDS011;15461;41.652;9.378;2024-02-26T05:29:43;1.60;;;0.70;;
28176;SDS011;15461;41.652;9.378;2024-02-26T05:32:09;0.47;;;0.47;;
28176;SDS011;15461;41.652;9.378;2024-02-26T05:34:34;0.93;;;0.50;;
28176;SDS011;15461;41.652;9.378;2024-02-26T05:37:00;3.42;;;0.50;;
28176;SDS011;15461;41.652;9.378;2024-02-26T05:39:26;1.13;;;0.73;;
28176;SDS011;15461;41.652;9.378;2024-02-26T05:41:52;1.48;;;1.02;;
28176;SDS011;15461;41.652;9.378;2024-02-26T05:44:17;0.50;;;0.50;;
28176;SDS011;15461;41.652;9.378;2024-02-26T05:46:43;1.90;;;0.70;;
28176;SDS011;15461;41.652;9.378;2024-02-26T05:49:09;0.50;;;0.50;;
28176;SDS011;15461;41.652;9.378;2024-02-26T05:51:34;1.33;;;0.70;;
28176;SDS011;15461;41.652;9.378;2024-02-26T05:54:00;1.88;;;0.75;;
28176;SDS011;15461;41.652;9.378;2024-02-26T05:56:26;1.13;;;0.80;;
28176;SDS011;15461;41.652;9.378;2024-02-26T05:58:52;1.88;;;0.70;;
28176;SDS011;15461;41.652;9.378;2024-02-26T06:01:19;0.50;;;0.50;;
28176;SDS011;15461;41.652;9.378;2024-02-26T06:03:45;1.50;;;0.80;;
28176;SDS011;15461;41.652;9.378;2024-02-26T06:06:11;1.02;;;0.70;;
28176;SDS011;15461;41.652;9.378;2024-02-26T06:08:37;0.63;;;0.50;;
28176;SDS011;15461;41.652;9.378;2024-02-26T06:11:08;1.33;;;0.55;;
28176;SDS011;15461;41.652;9.378;2024-02-26T06:13:34;0.75;;;0.45;;
28176;SDS011;15461;41.652;9.378;2024-02-26T06:16:00;1.95;;;0.60;;
28176;SDS011;15461;41.652;9.378;2024-02-26T06:18:27;2.58;;;0.70;;
28176;SDS011;15461;41.652;9.378;2024-02-26T06:20:53;0.60;;;0.57;;
28176;SDS011;15461;41.652;9.378;2024-02-26T06:23:19;1.23;;;0.70;;
28176;SDS011;15461;41.652;9.378;2024-02-26T06:25:45;0.40;;;0.40;;
28176;SDS011;15461;41.652;9.378;2024-02-26T06:28:13;2.78;;;0.70;;
28176;SDS011;15461;41.652;9.378;2024-02-26T06:30:39;1.55;;;0.75;;
28176;SDS011;15461;41.652;9.378;2024-02-26T06:33:05;0.88;;;0.55;;
28176;SDS011;15461;41.652;9.378;2024-02-26T06:35:30;0.60;;;0.60;;
28176;SDS011;15461;41.652;9.378;2024-02-26T06:37:56;1.58;;;0.75;;
28176;SDS011;15461;41.652;9.378;2024-02-26T06:40:22;2.80;;;0.80;;
28176;SDS011;15461;41.652;9.378;2024-02-26T06:42:48;3.17;;;0.70;;
28176;SDS011;15461;41.652;9.378;2024-02-26T06:45:15;0.50;;;0.50;;
28176;SDS011;15461;41.652;9.378;2024-02-26T06:47:41;1.27;;;0.77;;
28176;SDS011;15461;41.652;9.378;2024-02-26T06:50:08;0.73;;;0.63;;
28176;SDS011;15461;41.652;9.378;2024-02-26T06:52:34;0.63;;;0.47;;
28176;SDS011;15461;41.652;9.378;2024-02-26T06:55:00;3.30;;;0.70;;
28176;SDS011;15461;41.652;9.378;2024-02-26T06:57:26;2.40;;;0.60;;
28176;SDS011;15461;41.652;9.378;2024-02-26T06:59:51;0.75;;;0.50;;
28176;SDS011;15461;41.652;9.378;2024-02-26T07:02:17;1.17;;;0.57;;
28176;SDS011;15461;41.652;9.378;2024-02-26T07:04:43;0.60;;;0.50;;
28176;SDS011;15461;41.652;9.378;2024-02-26T07:07:09;2.03;;;0.60;;
28176;SDS011;15461;41.652;9.378;2024-02-26T07:09:35;3.70;;;0.60;;
28176;SDS011;15461;41.652;9.378;2024-02-26T07:12:01;0.43;;;0.43;;
28176;SDS011;15461;41.652;9.378;2024-02-26T07:14:27;0.30;;;0.30;;
28176;SDS011;15461;41.652;9.378;2024-02-26T07:16:53;3.20;;;0.75;;
28176;SDS011;15461;41.652;9.378;2024-02-26T07:19:19;3.10;;;0.63;;
28176;SDS011;15461;41.652;9.378;2024-02-26T07:21:45;3.60;;;0.77;;
28176;SDS011;15461;41.652;9.378;2024-02-26T07:24:10;1.83;;;0.50;;
28176;SDS011;15461;41.652;9.378;2024-02-26T07:26:36;1.50;;;0.63;;
28176;SDS011;15461;41.652;9.378;2024-02-26T07:29:02;3.80;;;0.60;;
28176;SDS011;15461;41.652;9.378;2024-02-26T07:31:29;1.95;;;0.70;;
28176;SDS011;15461;41.652;9.378;2024-02-26T07:33:55;2.28;;;0.70;;
28176;SDS011;15461;41.652;9.378;2024-02-26T07:36:20;1.75;;;0.70;;
28176;SDS011;15461;41.652;9.378;2024-02-26T07:38:46;1.58;;;0.80;;
28176;SDS011;15461;41.652;9.378;2024-02-26T07:41:12;4.60;;;0.90;;
28176;SDS011;15461;41.652;9.378;2024-02-26T07:43:38;4.38;;;0.80;;
28176;SDS011;15461;41.652;9.378;2024-02-26T07:46:03;0.88;;;0.70;;
28176;SDS011;15461;41.652;9.378;2024-02-26T07:48:29;5.40;;;1.30;;
28176;SDS011;15461;41.652;9.378;2024-02-26T07:50:55;2.08;;;0.70;;
28176;SDS011;15461;41.652;9.378;2024-02-26T07:53:21;6.82;;;1.55;;
28176;SDS011;15461;41.652;9.378;2024-02-26T07:55:47;3.38;;;1.38;;
28176;SDS011;15461;41.652;9.378;2024-02-26T07:58:12;9.35;;;1.20;;
28176;SDS011;15461;41.652;9.378;2024-02-26T08:00:38;3.90;;;0.88;;
28176;SDS011;15461;41.652;9.378;2024-02-26T08:03:04;4.25;;;0.88;;
28176;SDS011;15461;41.652;9.378;2024-02-26T08:05:30;1.90;;;0.80;;
28176;SDS011;15461;41.652;9.378;2024-02-26T08:07:56;6.18;;;0.98;;
28176;SDS011;15461;41.652;9.378;2024-02-26T08:10:21;2.65;;;1.00;;
28176;SDS011;15461;41.652;9.378;2024-02-26T08:12:47;3.92;;;1.13;;
28176;SDS011;15461;41.652;9.378;2024-02-26T08:15:13;4.50;;;1.17;;
28176;SDS011;15461;41.652;9.378;2024-02-26T08:17:39;5.70;;;1.00;;
28176;SDS011;15461;41.652;9.378;2024-02-26T08:20:05;3.80;;;1.40;;
28176;SDS011;15461;41.652;9.378;2024-02-26T08:22:31;5.68;;;1.13;;
28176;SDS011;15461;41.652;9.378;2024-02-26T08:24:58;5.22;;;1.20;;
28176;SDS011;15461;41.652;9.378;2024-02-26T08:27:24;1.75;;;0.93;;
28176;SDS011;15461;41.652;9.378;2024-02-26T08:29:50;6.72;;;0.95;;
28176;SDS011;15461;41.652;9.378;2024-02-26T08:32:15;6.15;;;1.10;;
28176;SDS011;15461;41.652;9.378;2024-02-26T08:34:41;2.00;;;1.08;;
28176;SDS011;15461;41.652;9.378;2024-02-26T08:37:07;18.20;;;2.55;;
28176;SDS011;15461;41.652;9.378;2024-02-26T08:39:33;16.13;;;2.42;;
28176;SDS011;15461;41.652;9.378;2024-02-26T08:41:59;12.07;;;1.60;;
28176;SDS011;15461;41.652;9.378;2024-02-26T08:44:24;6.07;;;1.27;;
28176;SDS011;15461;41.652;9.378;2024-02-26T08:46:51;7.90;;;1.67;;
28176;SDS011;15461;41.652;9.378;2024-02-26T08:49:17;3.78;;;1.00;;
28176;SDS011;15461;41.652;9.378;2024-02-26T08:51:43;6.40;;;1.02;;
28176;SDS011;15461;41.652;9.378;2024-02-26T08:54:09;1.58;;;0.70;;
28176;SDS011;15461;41.652;9.378;2024-02-26T08:56:35;4.03;;;0.77;;
28176;SDS011;15461;41.652;9.378;2024-02-26T08:59:01;3.05;;;0.95;;
28176;SDS011;15461;41.652;9.378;2024-02-26T09:01:29;4.80;;;0.82;;
28176;SDS011;15461;41.652;9.378;2024-02-26T09:03:56;0.80;;;0.60;;
28176;SDS011;15461;41.652;9.378;2024-02-26T09:06:22;3.85;;;1.02;;
28176;SDS011;15461;41.652;9.378;2024-02-26T09:08:48;2.90;;;1.13;;
28176;SDS011;15461;41.652;9.378;2024-02-26T09:11:14;1.33;;;0.65;;
28176;SDS011;15461;41.652;9.378;2024-02-26T09:13:39;5.18;;;0.73;;
28176;SDS011;15461;41.652;9.378;2024-02-26T09:16:06;1.45;;;0.47;;
28176;SDS011;15461;41.652;9.378;2024-02-26T09:18:31;1.45;;;0.80;;
28176;SDS011;15461;41.652;9.378;2024-02-26T09:20:57;0.65;;;0.40;;
28176;SDS011;15461;41.652;9.378;2024-02-26T09:23:23;4.60;;;0.68;;
28176;SDS011;15461;41.652;9.378;2024-02-26T09:25:49;2.88;;;1.05;;
28176;SDS011;15461;41.652;9.378;2024-02-26T09:28:15;2.60;;;0.88;;
28176;SDS011;15461;41.652;9.378;2024-02-26T09:30:42;1.00;;;0.60;;
28176;SDS011;15461;41.652;9.378;2024-02-26T09:33:09;3.55;;;0.77;;
28176;SDS011;15461;41.652;9.378;2024-02-26T09:35:34;0.40;;;0.40;;
28176;SDS011;15461;41.652;9.378;2024-02-26T09:38:00;3.35;;;0.60;;
28176;SDS011;15461;41.652;9.378;2024-02-26T09:40:26;2.10;;;0.57;;
28176;SDS011;15461;41.652;9.378;2024-02-26T09:42:53;3.90;;;0.77;;
28176;SDS011;15461;41.652;9.378;2024-02-26T09:45:25;1.48;;;0.60;;
28176;SDS011;15461;41.652;9.378;2024-02-26T09:47:52;1.45;;;0.57;;
28176;SDS011;15461;41.652;9.378;2024-02-26T09:50:21;0.95;;;0.60;;
28176;SDS011;15461;41.652;9.378;2024-02-26T09:52:47;1.40;;;0.40;;
28176;SDS011;15461;41.652;9.378;2024-02-26T09:55:14;1.50;;;0.82;;
28176;SDS011;15461;41.652;9.378;2024-02-26T09:57:44;0.82;;;0.57;;
28176;SDS011;15461;41.652;9.378;2024-02-26T10:00:14;3.00;;;0.40;;
28176;SDS011;15461;41.652;9.378;2024-02-26T10:02:45;1.23;;;0.43;;
28176;SDS011;15461;41.652;9.378;2024-02-26T10:05:14;2.15;;;0.80;;
28176;SDS011;15461;41.652;9.378;2024-02-26T10:07:46;1.05;;;0.60;;
28176;SDS011;15461;41.652;9.378;2024-02-26T10:10:15;4.35;;;0.80;;
28176;SDS011;15461;41.652;9.378;2024-02-26T10:12:42;2.08;;;0.77;;
28176;SDS011;15461;41.652;9.378;2024-02-26T10:15:08;2.10;;;0.93;;
28176;SDS011;15461;41.652;9.378;2024-02-26T10:17:34;1.40;;;0.60;;
28176;SDS011;15461;41.652;9.378;2024-02-26T10:20:11;1.35;;;0.82;;
28176;SDS011;15461;41.652;9.378;2024-02-26T10:22:41;3.53;;;0.68;;
28176;SDS011;15461;41.652;9.378;2024-02-26T10:25:08;1.08;;;0.60;;
28176;SDS011;15461;41.652;9.378;2024-02-26T10:27:34;0.50;;;0.50;;
28176;SDS011;15461;41.652;9.378;2024-02-26T10:30:03;1.10;;;0.50;;
28176;SDS011;15461;41.652;9.378;2024-02-26T10:32:30;2.75;;;0.80;;
28176;SDS011;15461;41.652;9.378;2024-02-26T10:34:57;1.77;;;0.73;;
28176;SDS011;15461;41.652;9.378;2024-02-26T10:37:23;1.23;;;0.63;;
28176;SDS011;15461;41.652;9.378;2024-02-26T10:39:50;1.45;;;0.80;;
28176;SDS011;15461;41.652;9.378;2024-02-26T10:42:16;2.13;;;0.98;;
28176;SDS011;15461;41.652;9.378;2024-02-26T10:44:44;5.10;;;1.35;;
28176;SDS011;15461;41.652;9.378;2024-02-26T10:47:10;2.78;;;1.00;;
28176;SDS011;15461;41.652;9.378;2024-02-26T10:49:36;1.52;;;0.95;;
28176;SDS011;15461;41.652;9.378;2024-02-26T10:52:03;5.82;;;1.10;;
28176;SDS011;15461;41.652;9.378;2024-02-26T10:54:31;3.70;;;1.15;;
28176;SDS011;15461;41.652;9.378;2024-02-26T10:56:58;1.13;;;0.93;;
28176;SDS011;15461;41.652;9.378;2024-02-26T10:59:26;2.38;;;1.13;;
28176;SDS011;15461;41.652;9.378;2024-02-26T11:01:52;6.80;;;1.23;;
28176;SDS011;15461;41.652;9.378;2024-02-26T11:04:20;3.08;;;1.20;;
28176;SDS011;15461;41.652;9.378;2024-02-26T11:06:47;8.88;;;1.40;;
28176;SDS011;15461;41.652;9.378;2024-02-26T11:09:15;7.85;;;1.92;;
28176;SDS011;15461;41.652;9.378;2024-02-26T11:11:42;9.98;;;1.23;;
28176;SDS011;15461;41.652;9.378;2024-02-26T11:14:08;2.90;;;1.45;;
28176;SDS011;15461;41.652;9.378;2024-02-26T11:16:39;5.25;;;1.10;;
28176;SDS011;15461;41.652;9.378;2024-02-26T11:19:08;3.42;;;1.20;;
28176;SDS011;15461;41.652;9.378;2024-02-26T11:21:36;3.60;;;1.52;;
28176;SDS011;15461;41.652;9.378;2024-02-26T11:24:09;3.47;;;1.70;;
28176;SDS011;15461;41.652;9.378;2024-02-26T11:26:53;3.38;;;1.58;;
28176;SDS011;15461;41.652;9.378;2024-02-26T11:29:25;7.60;;;2.40;;
28176;SDS011;15461;41.652;9.378;2024-02-26T11:32:00;6.63;;;2.80;;
28176;SDS011;15461;41.652;9.378;2024-02-26T11:34:26;10.00;;;2.90;;
28176;SDS011;15461;41.652;9.378;2024-02-26T11:36:52;10.60;;;1.95;;
28176;SDS011;15461;41.652;9.378;2024-02-26T11:39:19;7.78;;;1.77;;
28176;SDS011;15461;41.652;9.378;2024-02-26T11:41:45;7.38;;;1.95;;
28176;SDS011;15461;41.652;9.378;2024-02-26T11:44:12;15.25;;;2.63;;
28176;SDS011;15461;41.652;9.378;2024-02-26T11:46:41;24.27;;;3.30;;
28176;SDS011;15461;41.652;9.378;2024-02-26T11:51:56;5.72;;;1.70;;
28176;SDS011;15461;41.652;9.378;2024-02-26T11:54:58;6.47;;;1.83;;
28176;SDS011;15461;41.652;9.378;2024-02-26T11:59:46;9.20;;;1.85;;
28176;SDS011;15461;41.652;9.378;2024-02-26T12:02:17;8.25;;;2.15;;
28176;SDS011;15461;41.652;9.378;2024-02-26T12:07:55;15.45;;;2.30;;
28176;SDS011;15461;41.652;9.378;2024-02-26T12:10:30;10.57;;;2.03;;
28176;SDS011;15461;41.652;9.378;2024-02-26T12:13:13;8.57;;;2.33;;
28176;SDS011;15461;41.652;9.378;2024-02-26T12:15:43;12.93;;;2.17;;
28176;SDS011;15461;41.652;9.378;2024-02-26T12:18:12;11.82;;;2.22;;
28176;SDS011;15461;41.652;9.378;2024-02-26T12:20:42;19.20;;;2.13;;
28176;SDS011;15461;41.652;9.378;2024-02-26T12:23:15;20.42;;;2.65;;
28176;SDS011;15461;41.652;9.378;2024-02-26T12:25:44;13.23;;;2.88;;
28176;SDS011;15461;41.652;9.378;2024-02-26T12:28:13;12.15;;;2.58;;
28176;SDS011;15461;41.652;9.378;2024-02-26T12:30:40;14.73;;;2.60;;
28176;SDS011;15461;41.652;9.378;2024-02-26T12:33:05;15.32;;;2.47;;
28176;SDS011;15461;41.652;9.378;2024-02-26T12:35:33;27.35;;;3.40;;
28176;SDS011;15461;41.652;9.378;2024-02-26T12:38:00;14.50;;;2.75;;
28176;SDS011;15461;41.652;9.378;2024-02-26T12:40:28;16.52;;;2.47;;
28176;SDS011;15461;41.652;9.378;2024-02-26T12:42:55;24.50;;;3.08;;
28176;SDS011;15461;41.652;9.378;2024-02-26T12:45:20;14.98;;;2.90;;
28176;SDS011;15461;41.652;9.378;2024-02-26T12:47:46;14.90;;;3.00;;
28176;SDS011;15461;41.652;9.378;2024-02-26T12:50:15;19.65;;;3.30;;
28176;SDS011;15461;41.652;9.378;2024-02-26T12:52:43;14.80;;;2.30;;
28176;SDS011;15461;41.652;9.378;2024-02-26T12:55:11;27.80;;;3.40;;
28176;SDS011;15461;41.652;9.378;2024-02-26T12:57:40;17.83;;;3.28;;
28176;SDS011;15461;41.652;9.378;2024-02-26T13:00:08;21.85;;;4.00;;
28176;SDS011;15461;41.652;9.378;2024-02-26T13:02:38;26.42;;;3.78;;
28176;SDS011;15461;41.652;9.378;2024-02-26T13:05:05;22.98;;;3.45;;
28176;SDS011;15461;41.652;9.378;2024-02-26T13:07:33;17.38;;;4.10;;
28176;SDS011;15461;41.652;9.378;2024-02-26T13:10:00;22.23;;;2.80;;
28176;SDS011;15461;41.652;9.378;2024-02-26T13:12:26;16.52;;;3.28;;
28176;SDS011;15461;41.652;9.378;2024-02-26T13:14:58;25.23;;;3.55;;
28176;SDS011;15461;41.652;9.378;2024-02-26T13:17:31;23.42;;;3.90;;
28176;SDS011;15461;41.652;9.378;2024-02-26T13:19:57;27.95;;;3.90;;
28176;SDS011;15461;41.652;9.378;2024-02-26T13:22:23;20.27;;;3.42;;
28176;SDS011;15461;41.652;9.378;2024-02-26T13:24:55;30.83;;;3.65;;
28176;SDS011;15461;41.652;9.378;2024-02-26T13:27:22;17.40;;;2.72;;
28176;SDS011;15461;41.652;9.378;2024-02-26T13:29:49;21.35;;;3.10;;
28176;SDS011;15461;41.652;9.378;2024-02-26T13:32:36;18.95;;;2.95;;
28176;SDS011;15461;41.652;9.378;2024-02-26T13:35:12;17.10;;;3.38;;
28176;SDS011;15461;41.652;9.378;2024-02-26T13:37:39;28.98;;;4.30;;
28176;SDS011;15461;41.652;9.378;2024-02-26T13:40:06;16.20;;;3.35;;
28176;SDS011;15461;41.652;9.378;2024-02-26T13:42:33;25.20;;;3.10;;
28176;SDS011;15461;41.652;9.378;2024-02-26T13:45:00;29.30;;;3.47;;
28176;SDS011;15461;41.652;9.378;2024-02-26T13:47:26;22.52;;;3.25;;
28176;SDS011;15461;41.652;9.378;2024-02-26T13:49:52;18.85;;;2.95;;
28176;SDS011;15461;41.652;9.378;2024-02-26T13:52:17;15.73;;;3.42;;
28176;SDS011;15461;41.652;9.378;2024-02-26T13:54:45;22.10;;;3.10;;
28176;SDS011;15461;41.652;9.378;2024-02-26T13:57:11;23.20;;;3.13;;
28176;SDS011;15461;41.652;9.378;2024-02-26T13:59:37;24.23;;;3.28;;
28176;SDS011;15461;41.652;9.378;2024-02-26T14:02:07;20.20;;;2.85;;
28176;SDS011;15461;41.652;9.378;2024-02-26T14:04:36;18.92;;;3.15;;
28176;SDS011;15461;41.652;9.378;2024-02-26T14:07:03;20.17;;;3.58;;
28176;SDS011;15461;41.652;9.378;2024-02-26T14:09:29;20.60;;;3.10;;
28176;SDS011;15461;41.652;9.378;2024-02-26T14:11:55;18.67;;;3.08;;
28176;SDS011;15461;41.652;9.378;2024-02-26T14:14:21;23.05;;;3.92;;
28176;SDS011;15461;41.652;9.378;2024-02-26T14:16:46;17.63;;;3.33;;
28176;SDS011;15461;41.652;9.378;2024-02-26T14:19:12;28.20;;;3.85;;
28176;SDS011;15461;41.652;9.378;2024-02-26T14:21:38;19.25;;;3.45;;
28176;SDS011;15461;41.652;9.378;2024-02-26T14:24:04;18.50;;;2.72;;
28176;SDS011;15461;41.652;9.378;2024-02-26T14:26:30;17.77;;;3.00;;
28176;SDS011;15461;41.652;9.378;2024-02-26T14:28:56;23.98;;;3.05;;
28176;SDS011;15461;41.652;9.378;2024-02-26T14:31:22;24.83;;;2.72;;
28176;SDS011;15461;41.652;9.378;2024-02-26T14:33:48;22.25;;;2.80;;
28176;SDS011;15461;41.652;9.378;2024-02-26T14:36:15;17.38;;;3.10;;
28176;SDS011;15461;41.652;9.378;2024-02-26T14:38:41;19.95;;;2.78;;
28176;SDS011;15461;41.652;9.378;2024-02-26T14:41:06;6.70;;;1.50;;
28176;SDS011;15461;41.652;9.378;2024-02-26T14:43:32;12.32;;;2.05;;
28176;SDS011;15461;41.652;9.378;2024-02-26T14:46:00;9.25;;;2.28;;
28176;SDS011;15461;41.652;9.378;2024-02-26T14:48:25;21.67;;;2.50;;
28176;SDS011;15461;41.652;9.378;2024-02-26T14:50:51;15.55;;;2.13;;